createdAt,value
2019-03-09T00:01:22.662Z,8.70
2019-03-09T00:03:50.392Z,8.70
2019-03-09T00:06:18.491Z,8.70
2019-03-09T00:08:46.903Z,8.70
2019-03-09T00:11:14.691Z,8.70
2019-03-09T00:13:42.422Z,8.60
2019-03-09T00:16:10.099Z,8.60
2019-03-09T00:18:41.311Z,8.70
2019-03-09T00:21:09.011Z,8.70
2019-03-09T00:23:54.527Z,8.70
2019-03-09T00:26:44.640Z,8.70
2019-03-09T00:29:35.378Z,8.70
2019-03-09T00:32:08.481Z,8.60
2019-03-09T00:34:36.515Z,8.60
2019-03-09T00:37:19.499Z,8.60
2019-03-09T00:39:47.265Z,8.50
2019-03-09T00:42:14.893Z,8.50
2019-03-09T00:44:42.585Z,8.50
2019-03-09T00:47:10.504Z,8.50
2019-03-09T00:49:38.221Z,8.50
2019-03-09T00:52:05.822Z,8.50
2019-03-09T00:54:33.519Z,8.50
2019-03-09T00:57:01.377Z,8.50
2019-03-09T00:59:29.025Z,8.50
2019-03-09T01:01:56.675Z,8.50
2019-03-09T01:04:24.337Z,8.50
2019-03-09T01:06:54.037Z,8.50
2019-03-09T01:09:22.823Z,8.50
2019-03-09T01:11:50.520Z,8.50
2019-03-09T01:14:18.339Z,8.50
2019-03-09T01:16:46.234Z,8.50
2019-03-09T01:19:13.937Z,8.60
2019-03-09T01:21:41.641Z,8.60
2019-03-09T01:24:09.333Z,8.50
2019-03-09T01:26:36.983Z,8.50
2019-03-09T01:29:04.705Z,8.50
2019-03-09T01:31:32.708Z,8.50
2019-03-09T01:34:00.334Z,8.40
2019-03-09T01:36:27.951Z,8.40
2019-03-09T01:38:55.594Z,8.50
2019-03-09T01:41:23.198Z,8.50
2019-03-09T01:43:50.859Z,8.50
2019-03-09T01:46:18.806Z,8.50
2019-03-09T01:48:46.474Z,8.60
2019-03-09T01:51:14.128Z,8.60
2019-03-09T01:53:41.834Z,8.60
2019-03-09T01:56:09.531Z,8.60
2019-03-09T01:58:38.238Z,8.60
2019-03-09T02:01:05.899Z,8.60
2019-03-09T02:03:33.608Z,8.70
2019-03-09T02:06:01.288Z,8.70
2019-03-09T02:08:28.951Z,8.70
2019-03-09T02:10:56.621Z,8.70
2019-03-09T02:13:24.323Z,8.80
2019-03-09T02:15:52.022Z,8.80
2019-03-09T02:18:23.958Z,8.90
2019-03-09T02:20:51.597Z,8.90
2019-03-09T02:23:19.249Z,8.90
2019-03-09T02:25:46.851Z,8.90
2019-03-09T02:28:17.654Z,8.90
2019-03-09T02:30:45.260Z,8.90
2019-03-09T02:33:12.866Z,9.00
2019-03-09T02:35:40.453Z,9.00
2019-03-09T02:38:27.759Z,9.00
2019-03-09T02:40:55.437Z,9.10
2019-03-09T02:43:23.117Z,9.10
2019-03-09T02:45:50.707Z,9.10
2019-03-09T02:48:21.474Z,9.10
2019-03-09T02:50:55.440Z,9.20
2019-03-09T02:53:24.449Z,9.20
2019-03-09T02:55:52.053Z,9.20
2019-03-09T02:58:19.666Z,9.20
2019-03-09T03:00:51.425Z,9.20
2019-03-09T03:03:20.289Z,9.20
2019-03-09T03:05:47.862Z,9.20
2019-03-09T03:08:15.452Z,9.30
2019-03-09T03:10:43.095Z,9.30
2019-03-09T03:13:10.621Z,9.30
2019-03-09T03:15:38.255Z,9.30
2019-03-09T03:18:08.131Z,9.30
2019-03-09T03:20:35.801Z,9.40
2019-03-09T03:23:03.484Z,9.40
2019-03-09T03:25:31.077Z,9.40
2019-03-09T03:28:02.309Z,9.40
2019-03-09T03:30:29.894Z,9.40
2019-03-09T03:32:57.897Z,9.50
2019-03-09T03:35:25.462Z,9.50
2019-03-09T03:37:53.084Z,9.50
2019-03-09T03:40:21.350Z,9.50
2019-03-09T03:42:49.056Z,9.60
2019-03-09T03:45:17.872Z,9.50
2019-03-09T03:47:45.552Z,9.50
2019-03-09T03:50:13.158Z,9.60
2019-03-09T03:52:40.960Z,9.60
2019-03-09T03:55:09.052Z,9.70
2019-03-09T03:57:44.093Z,9.60
2019-03-09T04:00:12.008Z,9.60
2019-03-09T04:02:39.690Z,9.60
2019-03-09T04:05:07.499Z,9.50
2019-03-09T04:07:35.635Z,9.50
2019-03-09T04:10:03.797Z,9.50
2019-03-09T04:12:32.535Z,9.50
2019-03-09T04:15:00.414Z,9.50
2019-03-09T04:17:30.761Z,9.50
2019-03-09T04:19:58.486Z,9.50
2019-03-09T04:22:26.200Z,9.50
2019-03-09T04:24:54.112Z,9.60
2019-03-09T04:27:24.017Z,9.60
2019-03-09T04:29:51.879Z,9.60
2019-03-09T04:32:19.765Z,9.60
2019-03-09T04:34:47.561Z,9.60
2019-03-09T04:37:16.323Z,9.70
2019-03-09T04:39:43.924Z,9.60
2019-03-09T04:42:11.529Z,9.60
2019-03-09T04:44:39.200Z,9.60
2019-03-09T04:47:08.951Z,9.60
2019-03-09T04:49:36.572Z,9.60
2019-03-09T04:52:04.260Z,9.60
2019-03-09T04:54:33.047Z,9.60
2019-03-09T04:57:00.710Z,9.60
2019-03-09T04:59:30.083Z,9.60
2019-03-09T05:01:57.665Z,9.60
2019-03-09T05:04:52.201Z,9.70
2019-03-09T05:07:38.066Z,9.60
2019-03-09T05:10:27.074Z,9.60
2019-03-09T05:12:58.640Z,9.60
2019-03-09T05:15:26.324Z,9.60
2019-03-09T05:17:58.207Z,9.60
2019-03-09T05:20:27.714Z,9.60
2019-03-09T05:22:55.374Z,9.60
2019-03-09T05:25:24.013Z,9.60
2019-03-09T05:28:04.176Z,9.60
2019-03-09T05:30:39.080Z,9.60
2019-03-09T05:33:06.837Z,9.60
2019-03-09T05:35:38.464Z,9.50
2019-03-09T05:38:10.483Z,9.60
2019-03-09T05:40:38.278Z,9.50
2019-03-09T05:43:06.251Z,9.50
2019-03-09T05:45:33.942Z,9.50
2019-03-09T05:48:01.585Z,9.50
2019-03-09T05:50:29.206Z,9.60
2019-03-09T05:53:09.590Z,9.60
2019-03-09T05:55:40.282Z,9.60
2019-03-09T05:58:15.532Z,9.60
2019-03-09T06:00:43.621Z,9.60
2019-03-09T06:03:11.569Z,9.60
2019-03-09T06:06:02.589Z,9.70
2019-03-09T06:08:30.312Z,9.70
2019-03-09T06:10:58.007Z,9.70
2019-03-09T06:13:25.655Z,9.70
2019-03-09T06:15:53.354Z,9.70
2019-03-09T06:18:26.246Z,9.70
2019-03-09T06:20:53.872Z,9.80
2019-03-09T06:23:21.562Z,9.80
2019-03-09T06:25:49.273Z,9.80
2019-03-09T06:28:20.297Z,9.90
2019-03-09T06:30:47.936Z,9.90
2019-03-09T06:33:26.241Z,9.90
2019-03-09T06:36:09.246Z,9.90
2019-03-09T06:38:39.835Z,9.90
2019-03-09T06:41:09.374Z,9.90
2019-03-09T06:43:37.012Z,9.90
2019-03-09T06:46:04.825Z,9.90
2019-03-09T06:48:33.607Z,9.90
2019-03-09T06:51:01.324Z,9.90
2019-03-09T06:53:29.048Z,9.90
2019-03-09T06:55:56.721Z,9.90
2019-03-09T06:58:28.475Z,9.90
2019-03-09T07:00:56.343Z,9.90
2019-03-09T07:03:24.058Z,9.90
2019-03-09T07:05:51.735Z,9.90
2019-03-09T07:08:19.372Z,10.00
2019-03-09T07:10:47.061Z,10.00
2019-03-09T07:13:14.981Z,10.00
2019-03-09T07:15:59.493Z,10.00
2019-03-09T07:18:40.456Z,10.00
2019-03-09T07:21:08.459Z,10.00
2019-03-09T07:23:36.197Z,10.00
2019-03-09T07:26:03.885Z,10.10
2019-03-09T07:28:36.113Z,10.00
2019-03-09T07:31:04.449Z,10.00
2019-03-09T07:33:32.092Z,10.10
2019-03-09T07:36:04.065Z,10.10
2019-03-09T07:38:34.199Z,10.10
2019-03-09T07:41:01.963Z,10.20
2019-03-09T07:43:29.636Z,10.20
2019-03-09T07:45:57.215Z,10.20
2019-03-09T07:48:24.840Z,10.20
2019-03-09T07:50:52.656Z,10.30
2019-03-09T07:53:20.456Z,10.20
2019-03-09T07:55:48.254Z,10.20
2019-03-09T07:58:19.522Z,10.20
2019-03-09T08:00:49.011Z,10.30
2019-03-09T08:03:16.730Z,10.30
2019-03-09T08:05:47.913Z,10.30
2019-03-09T08:08:15.729Z,10.30
2019-03-09T08:10:43.356Z,10.30
2019-03-09T08:13:11.672Z,10.30
2019-03-09T08:15:39.369Z,10.30
2019-03-09T08:18:07.090Z,10.30
2019-03-09T08:20:35.183Z,10.30
2019-03-09T08:23:04.204Z,10.40
2019-03-09T08:25:31.916Z,10.40
2019-03-09T08:28:01.751Z,10.40
2019-03-09T08:30:29.432Z,10.40
2019-03-09T08:32:57.862Z,10.40
2019-03-09T08:35:25.540Z,10.40
2019-03-09T08:37:53.238Z,10.40
2019-03-09T08:40:21.226Z,10.40
2019-03-09T08:42:50.167Z,10.40
2019-03-09T08:45:18.473Z,10.40
2019-03-09T08:47:54.536Z,10.30
2019-03-09T08:50:22.208Z,10.40
2019-03-09T08:52:49.933Z,10.40
2019-03-09T08:55:18.193Z,10.30
2019-03-09T08:57:46.133Z,10.40
2019-03-09T09:00:22.159Z,10.40
2019-03-09T09:02:52.396Z,10.40
2019-03-09T09:05:20.020Z,10.40
2019-03-09T09:07:53.868Z,10.40
2019-03-09T09:10:23.259Z,10.40
2019-03-09T09:12:51.046Z,10.40
2019-03-09T09:15:18.747Z,10.50
2019-03-09T09:17:47.062Z,10.50
2019-03-09T09:20:16.218Z,10.50
2019-03-09T09:22:43.838Z,10.50
2019-03-09T09:25:13.834Z,10.50
2019-03-09T09:27:41.636Z,10.60
2019-03-09T09:30:21.732Z,10.60
2019-03-09T09:32:49.401Z,10.60
2019-03-09T09:35:17.611Z,10.60
2019-03-09T09:37:46.343Z,10.70
2019-03-09T09:40:16.226Z,10.70
2019-03-09T09:42:44.089Z,10.70
2019-03-09T09:45:12.136Z,10.70
2019-03-09T09:47:42.725Z,10.70
2019-03-09T09:50:10.744Z,10.70
2019-03-09T09:52:38.739Z,10.80
2019-03-09T09:55:09.206Z,10.80
2019-03-09T09:57:44.524Z,10.90
2019-03-09T10:00:18.126Z,10.90
2019-03-09T10:02:48.132Z,11.00
2019-03-09T10:05:15.902Z,11.00
2019-03-09T10:07:45.650Z,11.00
2019-03-09T10:10:16.894Z,11.00
2019-03-09T10:12:44.605Z,11.10
2019-03-09T10:15:16.501Z,11.10
2019-03-09T10:17:44.155Z,11.10
2019-03-09T10:20:12.477Z,11.10
2019-03-09T10:22:40.135Z,11.10
2019-03-09T10:25:08.123Z,11.20
2019-03-09T10:27:45.387Z,11.30
2019-03-09T10:30:16.279Z,11.20
2019-03-09T10:32:44.264Z,11.20
2019-03-09T10:35:12.047Z,11.20
2019-03-09T10:37:41.905Z,11.30
2019-03-09T10:40:09.770Z,11.40
2019-03-09T10:42:37.733Z,11.50
2019-03-09T10:45:05.932Z,11.50
2019-03-09T10:47:35.278Z,11.60
2019-03-09T10:50:05.365Z,11.50
2019-03-09T10:52:33.466Z,11.50
2019-03-09T10:55:01.586Z,11.40
2019-03-09T10:57:32.213Z,11.30
2019-03-09T10:59:59.951Z,11.40
2019-03-09T11:02:30.730Z,11.30
2019-03-09T11:04:58.517Z,11.40
2019-03-09T11:07:29.682Z,11.40
2019-03-09T11:09:57.621Z,11.50
2019-03-09T11:12:25.369Z,11.70
2019-03-09T11:14:53.307Z,11.90
2019-03-09T11:17:23.641Z,11.90
2019-03-09T11:19:51.713Z,11.80
2019-03-09T11:22:19.373Z,11.90
2019-03-09T11:24:47.601Z,11.80
2019-03-09T11:27:15.771Z,11.80
2019-03-09T11:29:43.575Z,11.80
2019-03-09T11:32:11.321Z,11.90
2019-03-09T11:34:54.058Z,11.90
2019-03-09T11:37:23.114Z,12.00
2019-03-09T11:39:54.111Z,12.20
2019-03-09T11:42:23.203Z,12.60
2019-03-09T11:44:51.895Z,12.90
2019-03-09T11:47:19.997Z,12.70
2019-03-09T11:49:49.848Z,12.40
2019-03-09T11:52:20.408Z,12.20
2019-03-09T11:55:06.682Z,12.00
2019-03-09T11:57:44.430Z,11.90
2019-03-09T12:00:14.913Z,11.90
2019-03-09T12:02:42.685Z,11.90
2019-03-09T12:05:41.778Z,11.90
2019-03-09T12:08:11.803Z,12.00
2019-03-09T12:10:39.766Z,12.00
2019-03-09T12:13:07.531Z,11.90
2019-03-09T12:15:35.165Z,11.90
2019-03-09T12:18:10.365Z,11.90
2019-03-09T12:20:38.289Z,11.80
2019-03-09T12:23:22.123Z,11.80
2019-03-09T12:25:50.397Z,11.70
2019-03-09T12:28:21.063Z,11.60
2019-03-09T12:31:04.000Z,11.60
2019-03-09T12:34:13.354Z,11.50
2019-03-09T12:36:42.711Z,11.50
2019-03-09T12:39:57.728Z,11.50
2019-03-09T12:43:02.569Z,11.60
2019-03-09T12:52:39.694Z,11.60
2019-03-09T12:55:17.926Z,11.60
2019-03-09T12:58:20.765Z,11.80
2019-03-09T13:00:58.640Z,12.00
2019-03-09T13:03:29.674Z,12.00
2019-03-09T13:06:06.726Z,12.10
2019-03-09T13:08:39.622Z,12.10
2019-03-09T13:11:09.496Z,12.10
2019-03-09T13:13:37.216Z,12.20
2019-03-09T13:16:04.897Z,12.20
2019-03-09T13:18:39.386Z,12.30
2019-03-09T13:21:08.525Z,12.30
2019-03-09T13:23:40.225Z,12.30
2019-03-09T13:26:21.114Z,12.30
2019-03-09T13:32:59.417Z,12.20
2019-03-09T13:44:01.984Z,12.30
2019-03-09T13:46:51.845Z,12.30
2019-03-09T13:49:18.259Z,12.50
2019-03-09T13:51:54.690Z,12.70
2019-03-09T13:54:26.909Z,13.10
2019-03-09T13:56:57.620Z,13.40
2019-03-09T13:59:31.908Z,13.60
2019-03-09T14:02:12.942Z,13.60
2019-03-09T14:05:01.613Z,13.90
2019-03-09T14:08:24.760Z,14.10
2019-03-09T14:18:07.186Z,13.70
2019-03-09T14:20:43.975Z,13.60
2019-03-09T14:23:32.782Z,13.60
2019-03-09T14:26:14.348Z,13.50
2019-03-09T14:28:50.655Z,13.30
2019-03-09T14:31:18.352Z,13.20
2019-03-09T14:33:46.352Z,13.30
2019-03-09T14:36:16.750Z,13.80
2019-03-09T14:38:50.462Z,13.90
2019-03-09T14:41:18.940Z,14.00
2019-03-09T14:43:46.589Z,13.70
2019-03-09T14:46:17.461Z,13.50
2019-03-09T14:48:55.812Z,13.40
2019-03-09T14:51:23.358Z,13.50
2019-03-09T14:53:52.561Z,13.80
2019-03-09T14:56:24.692Z,13.80
2019-03-09T14:59:01.917Z,13.70
2019-03-09T15:02:20.534Z,13.60
2019-03-09T15:04:53.378Z,13.50
2019-03-09T15:07:43.362Z,13.30
2019-03-09T15:10:41.174Z,13.40
2019-03-09T15:13:22.769Z,13.30
2019-03-09T15:16:09.474Z,13.10
2019-03-09T15:18:27.658Z,13.30
2019-03-09T15:20:55.256Z,13.30
2019-03-09T15:23:23.190Z,13.30
2019-03-09T15:25:50.829Z,13.40
2019-03-09T15:28:43.854Z,13.40
2019-03-09T15:31:11.433Z,13.30
2019-03-09T15:33:42.612Z,13.30
2019-03-09T15:36:13.658Z,13.20
2019-03-09T15:38:54.810Z,13.20
2019-03-09T15:41:24.163Z,13.30
2019-03-09T15:43:53.726Z,13.30
2019-03-09T15:46:21.397Z,13.30
2019-03-09T15:49:05.664Z,13.20
2019-03-09T15:51:33.539Z,13.00
2019-03-09T15:54:04.908Z,12.90
2019-03-09T15:56:32.633Z,12.80
2019-03-09T16:02:29.691Z,12.70
2019-03-09T16:04:57.357Z,12.60
2019-03-09T16:07:25.274Z,12.40
2019-03-09T16:09:53.034Z,12.40
2019-03-09T16:12:20.685Z,12.40
2019-03-09T16:14:50.729Z,12.40
2019-03-09T16:17:42.762Z,12.40
2019-03-09T16:20:12.769Z,12.40
2019-03-09T16:22:40.389Z,12.50
2019-03-09T16:25:08.393Z,12.40
2019-03-09T16:27:51.245Z,12.40
2019-03-09T16:30:18.832Z,12.50
2019-03-09T16:32:46.459Z,12.50
2019-03-09T16:35:14.043Z,12.40
2019-03-09T16:38:01.125Z,12.40
2019-03-09T16:40:29.404Z,12.30
2019-03-09T16:42:57.130Z,12.20
2019-03-09T16:45:24.821Z,12.20
2019-03-09T16:51:33.029Z,12.10
2019-03-09T16:54:00.659Z,12.10
2019-03-09T16:56:28.437Z,12.00
2019-03-09T17:02:27.841Z,12.00
2019-03-09T17:04:53.951Z,11.90
2019-03-09T17:11:02.628Z,11.90
2019-03-09T17:13:31.577Z,11.80
2019-03-09T17:16:01.044Z,11.80
2019-03-09T17:22:09.364Z,11.70
2019-03-09T17:24:38.989Z,11.60
2019-03-09T17:27:35.514Z,11.50
2019-03-09T17:30:03.671Z,11.50
2019-03-09T17:32:31.288Z,11.40
2019-03-09T17:34:59.925Z,11.40
2019-03-09T17:40:55.821Z,11.40
2019-03-09T17:43:23.477Z,11.30
2019-03-09T17:45:51.222Z,11.30
2019-03-09T17:51:59.576Z,11.30
2019-03-09T17:54:27.212Z,11.30
2019-03-09T17:59:47.980Z,11.20
2019-03-09T18:02:15.651Z,11.10
2019-03-09T18:04:43.301Z,11.00
2019-03-09T18:10:42.997Z,11.00
2019-03-09T18:13:10.718Z,10.90
2019-03-09T18:15:38.318Z,11.00
2019-03-09T18:21:34.400Z,10.80
2019-03-09T18:24:02.040Z,10.80
2019-03-09T18:26:31.604Z,10.70
2019-03-09T18:32:40.152Z,10.80
2019-03-09T18:35:07.794Z,10.90
2019-03-09T18:37:38.513Z,10.90
2019-03-09T18:40:06.400Z,10.90
2019-03-09T18:42:35.261Z,10.90
2019-03-09T18:45:02.975Z,11.00
2019-03-09T18:50:58.874Z,11.00
2019-03-09T18:53:26.558Z,11.00
2019-03-09T18:55:59.318Z,11.00
2019-03-09T19:01:52.058Z,11.00
2019-03-09T19:04:19.778Z,10.90
2019-03-09T19:10:15.496Z,10.90
2019-03-09T19:12:43.130Z,10.90
2019-03-09T19:15:11.269Z,10.90
2019-03-09T19:21:07.226Z,10.80
2019-03-09T19:23:34.851Z,10.80
2019-03-09T19:26:02.548Z,10.70
2019-03-09T19:28:47.293Z,10.80
2019-03-09T19:31:14.879Z,10.80
2019-03-09T19:33:42.497Z,10.80
2019-03-09T19:36:10.350Z,10.70
2019-03-09T19:38:57.526Z,10.70
2019-03-09T19:41:25.170Z,10.70
2019-03-09T19:43:52.770Z,10.70
2019-03-09T19:46:20.707Z,10.70
2019-03-09T19:49:04.843Z,10.70
2019-03-09T19:51:32.431Z,10.60
2019-03-09T19:54:00.068Z,10.50
2019-03-09T19:56:27.776Z,10.50
2019-03-09T20:02:23.707Z,10.50
2019-03-09T20:04:51.367Z,10.50
2019-03-09T20:07:55.882Z,10.40
2019-03-09T20:10:28.849Z,10.50
2019-03-09T20:12:59.292Z,10.40
2019-03-09T20:15:29.951Z,10.40
2019-03-09T20:18:08.708Z,10.40
2019-03-09T20:20:36.296Z,10.30
2019-03-09T20:23:03.892Z,10.40
2019-03-09T20:25:33.069Z,10.40
2019-03-09T20:28:00.685Z,10.40
2019-03-09T20:30:28.667Z,10.40
2019-03-09T20:32:56.202Z,10.40
2019-03-09T20:35:24.270Z,10.30
2019-03-09T20:37:51.854Z,10.40
2019-03-09T20:40:19.463Z,10.40
2019-03-09T20:42:47.071Z,10.40
2019-03-09T20:45:14.982Z,10.30
2019-03-09T20:47:46.359Z,10.30
2019-03-09T20:50:14.493Z,10.30
2019-03-09T20:52:42.245Z,10.30
2019-03-09T20:55:09.943Z,10.30
2019-03-09T20:57:37.773Z,10.20
2019-03-09T21:00:07.675Z,10.20
2019-03-09T21:02:35.251Z,10.20
2019-03-09T21:05:05.348Z,10.20
2019-03-09T21:07:32.928Z,10.10
2019-03-09T21:10:00.553Z,10.20
2019-03-09T21:12:28.141Z,10.10
2019-03-09T21:14:55.759Z,10.10
2019-03-09T21:17:26.757Z,10.10
2019-03-09T21:19:54.350Z,10.10
2019-03-09T21:22:21.876Z,10.10
2019-03-09T21:24:49.453Z,10.10
2019-03-09T21:27:20.687Z,10.00
2019-03-09T21:29:48.286Z,10.00
2019-03-09T21:32:15.931Z,10.00
2019-03-09T21:34:43.522Z,10.00
2019-03-09T21:37:11.061Z,10.00
2019-03-09T21:39:38.627Z,10.00
2019-03-09T21:42:06.409Z,10.00
2019-03-09T21:44:33.972Z,9.90
2019-03-09T21:47:01.493Z,10.00
2019-03-09T21:49:29.077Z,10.00
2019-03-09T21:51:56.731Z,9.90
2019-03-09T21:54:24.292Z,9.90
2019-03-09T21:56:51.838Z,9.90
2019-03-09T21:59:19.390Z,9.90
2019-03-09T22:01:47.103Z,9.90
2019-03-09T22:04:14.652Z,9.90
2019-03-09T22:06:42.222Z,9.90
2019-03-09T22:09:09.796Z,9.80
2019-03-09T22:11:37.322Z,9.90
2019-03-09T22:14:04.887Z,9.80
2019-03-09T22:16:32.514Z,9.80
2019-03-09T22:19:00.320Z,9.80
2019-03-09T22:21:27.875Z,9.80
2019-03-09T22:23:55.504Z,9.80
2019-03-09T22:26:23.063Z,9.80
2019-03-09T22:28:54.642Z,9.80
2019-03-09T22:31:25.500Z,9.70
2019-03-09T22:33:53.016Z,9.70
2019-03-09T22:36:20.576Z,9.70
2019-03-09T22:38:51.284Z,9.70
2019-03-09T22:41:18.946Z,9.60
2019-03-09T22:43:46.498Z,9.60
2019-03-09T22:46:14.067Z,9.60
2019-03-09T22:48:48.960Z,9.60
2019-03-09T22:51:17.718Z,9.60
2019-03-09T22:53:45.272Z,9.60
2019-03-09T22:56:12.883Z,9.60
2019-03-09T22:58:44.901Z,9.50
2019-03-09T23:01:12.463Z,9.50
2019-03-09T23:03:40.180Z,9.50
2019-03-09T23:06:07.628Z,9.50
2019-03-09T23:08:39.435Z,9.50
2019-03-09T23:11:07.004Z,9.50
2019-03-09T23:13:34.522Z,9.50
2019-03-09T23:16:02.084Z,9.50
2019-03-09T23:18:31.320Z,9.50
2019-03-09T23:20:58.841Z,9.50
2019-03-09T23:23:26.437Z,9.50
2019-03-09T23:25:53.969Z,9.60
2019-03-09T23:28:21.541Z,9.50
2019-03-09T23:30:49.110Z,9.60
2019-03-09T23:33:16.636Z,9.60
2019-03-09T23:35:44.174Z,9.50
2019-03-09T23:38:13.748Z,9.50
2019-03-09T23:40:41.265Z,9.50
2019-03-09T23:43:08.804Z,9.50
2019-03-09T23:45:36.570Z,9.50
2019-03-09T23:48:07.226Z,9.50
2019-03-09T23:50:34.738Z,9.50
2019-03-09T23:53:02.247Z,9.40
2019-03-09T23:55:29.759Z,9.40
2019-03-09T23:57:57.363Z,9.40
